الصفحة الرئيسية
METAR-TAF:

METAR-TAF

مطار :

نيجنفارتوفسك, روسيا

دائرة عرض: 60-56N, خط طول: 076-29E, ارتفاع: 54 متر

مراقبة الطقس الحالي

تاريخ ووقت الإصدار 10 دقيقة قبل الساعة 23:00UTC
ريح 2 عقدة من الغرب
درجة الحرارة -4°درجة مئوية
الرطوبة 100%
ضغط 1016 hPa
الرؤية: 6000 متر

METAR: USNN 232300Z 26001MPS 6000 NSC M04/M04 Q1016 R21/0///65 NOSIG RMK QFE757

زمن: 04:10 (23:10 UTC)

توقعات

تاريخ ووقت الإصدار 3ساعات و 10 دقيقة قبل الساعة 20:00UTC
التوقعات صالحة من23 الساعة 21 UTC إلى 24 الساعة 21 UTC
ريح 6 عقدة من الجنوب
الرؤية: 3100 متر
غيوم مفككة على ارتفاع 700 قدم
ملبد بالغيوم على ارتفاع 5000 قدم
ثلوج خفيفة, غشاء
مؤقت
من 23 الساعة 21 UTC إلى 24 الساعة 03 UTC
الرؤية: 1000 متر
غيوم مفككة على ارتفاع 300 قدم
غيوم متفرقة على ارتفاع 1500 قدم, مزنة ركامية.
زخات ثلجية, غشاء
من 24 الساعة 0600 UTC
ريح 6 عقدة من الغرب/الشمال الغربي
الرؤية 10 كم أو أكثر
غيوم مفككة على ارتفاع 1500 قدم
غيوم متفرقة على ارتفاع 2000 قدم, مزنة ركامية.

TAF: USNN 232000Z 2321/2421 18003MPS 3100 -SN BR BKN007 OVC050 TEMPO 2321/2403 1000 SHSN BR BKN003 SCT015CB FM240600 29003MPS 9999 BKN015 SCT020CB

أرصاد الطقس والتوقعات من أكثر من 4000 مطار (تقارير الطقس للمطار METAR والتنبؤ بالطقس بالمطارTAF).

المحطات المتاحة هي النقط الصفراء والحمراء على الخريطة.

حرك المؤشر فوق النقطة لمعرفة اسم المحطة.

ثم انقر لمعرفة أرصاد وتوقعات الطقس.

لتغيير الخارطة: اضغط على الأزرار الخضراء مع رمز الصليب الأسود للتكبير. على الزر الأخضر مع شرطة للتصغير، أو على الأسهم الخضراء للخرائط المجاورة.


METAR-TAF: